Time;durP1;ratioP1;P1;durP2;ratioP2;P2;SDS_P1;SDS_P2;PMS_P1;PMS_P2;Temp;Humidity;BMP_temperature;BMP_pressure;BME280_temperature;BME280_humidity;BME280_pressure;Samples;Min_cycle;Max_cycle;Signal;HPM_P1;HPM_P2
2021/12/08 00:00:43;;;;;;;5.57;4.97;;;1.70;99.90;;;;;;4995870;28;20175;-73
2021/12/08 00:03:11;;;;;;;6.77;4.67;;;1.70;99.90;;;;;;4999894;28;20187;-72
2021/12/08 00:05:37;;;;;;;6.27;5.60;;;1.70;99.90;;;;;;5015268;28;20171;-72
2021/12/08 00:08:05;;;;;;;6.70;4.93;;;1.70;99.90;;;;;;4996187;28;20267;-72
2021/12/08 00:13:05;;;;;;;6.40;4.90;;;1.70;99.90;;;;;;4995793;28;20196;-72
2021/12/08 00:15:32;;;;;;;7.17;4.83;;;1.80;99.90;;;;;;4995410;28;20669;-73
2021/12/08 00:17:59;;;;;;;6.17;4.73;;;1.80;99.90;;;;;;4995453;28;20187;-72
2021/12/08 00:20:28;;;;;;;6.13;4.90;;;1.90;99.90;;;;;;4995405;28;20179;-73
2021/12/08 00:22:54;;;;;;;5.10;4.37;;;1.90;99.90;;;;;;4995596;28;20179;-72
2021/12/08 00:25:20;;;;;;;5.50;4.50;;;1.90;99.90;;;;;;4995371;28;20205;-72
2021/12/08 00:27:46;;;;;;;5.60;4.10;;;2.00;99.90;;;;;;4995140;28;20186;-72
2021/12/08 00:30:11;;;;;;;5.20;4.40;;;2.00;99.90;;;;;;4995246;28;20637;-73
2021/12/08 00:32:37;;;;;;;6.03;4.40;;;2.00;99.90;;;;;;4994432;28;20200;-72
2021/12/08 00:35:07;;;;;;;4.93;4.30;;;1.90;99.90;;;;;;5014655;28;20616;-72
2021/12/08 00:37:33;;;;;;;4.60;4.03;;;1.90;99.90;;;;;;5000978;28;20259;-72
2021/12/08 00:39:59;;;;;;;7.90;4.73;;;1.90;99.90;;;;;;4995221;28;20211;-73
2021/12/08 00:42:25;;;;;;;6.17;5.07;;;1.70;99.90;;;;;;4991551;28;20263;-72
2021/12/08 00:44:51;;;;;;;5.27;4.40;;;1.70;99.90;;;;;;4993924;28;20223;-73
2021/12/08 00:47:17;;;;;;;5.03;4.40;;;1.70;99.90;;;;;;4994759;28;20270;-72
2021/12/08 00:49:46;;;;;;;5.53;4.90;;;1.60;99.90;;;;;;4994770;28;20251;-73
2021/12/08 00:52:13;;;;;;;5.60;4.30;;;1.60;99.90;;;;;;4995017;28;20200;-72
2021/12/08 00:54:40;;;;;;;5.17;4.50;;;1.60;99.90;;;;;;4994550;28;20616;-73
2021/12/08 00:57:06;;;;;;;5.40;4.90;;;1.60;99.90;;;;;;4995031;28;20195;-73
2021/12/08 00:59:32;;;;;;;4.87;4.40;;;1.50;99.90;;;;;;4994575;28;20182;-72
2021/12/08 01:02:02;;;;;;;6.37;4.93;;;1.60;99.90;;;;;;4994516;28;20168;-72
2021/12/08 01:04:37;;;;;;;7.70;5.33;;;1.60;99.90;;;;;;4988873;28;20225;-73
2021/12/08 01:07:04;;;;;;;6.40;4.63;;;1.60;99.90;;;;;;4992452;28;20266;-72
2021/12/08 01:09:30;;;;;;;8.57;4.70;;;1.70;99.90;;;;;;5013545;28;20178;-72
2021/12/08 01:12:01;;;;;;;5.43;4.10;;;1.70;99.90;;;;;;4995646;28;20195;-74
2021/12/08 01:14:27;;;;;;;4.63;4.00;;;1.60;99.90;;;;;;5012761;28;20701;-74
2021/12/08 01:16:53;;;;;;;5.13;3.90;;;1.70;99.90;;;;;;5013200;28;20182;-72
2021/12/08 01:19:19;;;;;;;4.23;3.83;;;1.70;99.90;;;;;;4995630;28;20175;-73
2021/12/08 01:21:46;;;;;;;4.87;4.10;;;1.70;99.90;;;;;;5013111;28;20273;-73
2021/12/08 01:24:11;;;;;;;5.30;4.03;;;1.70;99.90;;;;;;5013507;28;20210;-73
2021/12/08 01:26:37;;;;;;;4.40;4.00;;;1.60;99.90;;;;;;4996500;28;20182;-73
2021/12/08 01:29:03;;;;;;;5.20;4.20;;;1.50;99.90;;;;;;4985968;28;20646;-73
2021/12/08 01:31:30;;;;;;;5.90;4.07;;;1.70;99.90;;;;;;5014227;28;20262;-71
2021/12/08 01:33:56;;;;;;;5.00;4.50;;;1.40;99.90;;;;;;5013563;28;20206;-72
2021/12/08 01:36:21;;;;;;;4.93;4.43;;;1.50;99.90;;;;;;5009307;28;20186;-73
2021/12/08 01:38:47;;;;;;;5.23;4.47;;;1.60;99.90;;;;;;4993945;28;20181;-73
2021/12/08 01:41:13;;;;;;;6.07;4.93;;;1.60;99.90;;;;;;4982696;28;20547;-73
2021/12/08 01:43:42;;;;;;;6.27;4.27;;;1.60;99.90;;;;;;5013404;28;20225;-72
2021/12/08 01:46:11;;;;;;;6.57;4.93;;;1.50;99.90;;;;;;5013612;28;20259;-72
2021/12/08 01:48:40;;;;;;;6.53;4.37;;;1.60;99.90;;;;;;4993815;28;20187;-72
2021/12/08 01:51:17;;;;;;;6.23;5.07;;;1.50;99.90;;;;;;4993845;28;20321;-73
2021/12/08 01:53:48;;;;;;;7.23;4.83;;;1.40;99.90;;;;;;4987211;28;20210;-73
2021/12/08 01:56:15;;;;;;;5.00;4.60;;;1.40;99.90;;;;;;5013460;28;20173;-73
2021/12/08 01:58:40;;;;;;;6.03;4.63;;;1.40;99.90;;;;;;5013688;28;20194;-73
2021/12/08 02:01:09;;;;;;;6.80;4.70;;;1.30;99.90;;;;;;5013401;28;20226;-73
2021/12/08 02:03:36;;;;;;;8.07;4.70;;;1.30;99.90;;;;;;5013254;28;20199;-73
2021/12/08 02:06:06;;;;;;;5.70;4.77;;;1.40;99.90;;;;;;5011782;28;20185;-73
2021/12/08 02:08:32;;;;;;;5.33;4.50;;;1.20;99.90;;;;;;4993592;28;20546;-73
2021/12/08 02:10:59;;;;;;;5.13;4.60;;;1.20;99.90;;;;;;4993683;28;20219;-73
2021/12/08 02:13:27;;;;;;;5.13;4.47;;;1.30;99.90;;;;;;4993403;28;20793;-72
2021/12/08 02:15:53;;;;;;;6.00;4.87;;;1.80;99.90;;;;;;4993619;28;20176;-72
2021/12/08 02:18:19;;;;;;;7.17;5.53;;;2.20;99.90;;;;;;4993681;28;20176;-73
2021/12/08 02:20:48;;;;;;;6.17;5.23;;;1.20;99.90;;;;;;4995499;28;20541;-72
2021/12/08 02:23:14;;;;;;;5.80;5.03;;;1.20;99.90;;;;;;5013232;28;20199;-73
2021/12/08 02:25:39;;;;;;;5.60;5.10;;;1.20;99.90;;;;;;5013136;28;20269;-73
2021/12/08 02:28:08;;;;;;;5.73;5.13;;;1.20;99.90;;;;;;5016041;28;20610;-73
2021/12/08 02:30:55;;;;;;;7.30;5.07;;;1.20;99.90;;;;;;5016958;28;20254;-73
2021/12/08 02:47:17;;;;;;;6.80;5.10;;;1.40;99.90;;;;;;4997101;28;20226;-73
2021/12/08 02:49:43;;;;;;;6.93;5.90;;;1.40;99.90;;;;;;4990374;28;20175;-73
2021/12/08 02:52:12;;;;;;;10.00;6.03;;;1.40;99.90;;;;;;4997042;28;20216;-73
2021/12/08 02:54:44;;;;;;;6.53;5.83;;;1.30;99.90;;;;;;4996908;28;20246;-73
2021/12/08 02:57:11;;;;;;;6.30;5.70;;;1.40;99.90;;;;;;4997014;28;20617;-72
2021/12/08 02:59:39;;;;;;;6.83;6.20;;;1.30;99.90;;;;;;4997519;28;20171;-74
2021/12/08 03:02:05;;;;;;;11.33;6.47;;;1.30;99.90;;;;;;5016605;28;20171;-74
2021/12/08 03:04:31;;;;;;;6.77;6.03;;;1.40;99.90;;;;;;5016491;28;20206;-73
2021/12/08 03:06:57;;;;;;;8.07;6.30;;;1.40;99.90;;;;;;5007210;28;20180;-74
2021/12/08 03:09:23;;;;;;;7.23;6.53;;;1.40;99.90;;;;;;4996750;28;20176;-73
2021/12/08 03:11:52;;;;;;;7.60;6.80;;;1.40;99.90;;;;;;4996601;28;20207;-73
2021/12/08 03:14:18;;;;;;;8.47;7.17;;;1.40;99.90;;;;;;4996626;28;20639;-73
2021/12/08 03:16:54;;;;;;;10.53;6.83;;;1.40;99.90;;;;;;4993574;28;20194;-74
2021/12/08 03:19:22;;;;;;;11.07;7.87;;;1.40;99.90;;;;;;5005776;28;20172;-73
2021/12/08 03:21:49;;;;;;;9.37;7.27;;;1.40;99.90;;;;;;4995759;28;20536;-74
2021/12/08 03:26:50;;;;;;;6.73;6.10;;;1.50;99.90;;;;;;4994880;28;20184;-73
2021/12/08 03:32:14;;;;;;;8.67;7.23;;;1.50;99.90;;;;;;5007405;28;20546;-74
2021/12/08 03:34:50;;;;;;;7.60;6.70;;;1.50;99.90;;;;;;4998310;28;20205;-73
2021/12/08 03:37:17;;;;;;;7.57;6.87;;;1.50;99.90;;;;;;5003804;28;20212;-74
2021/12/08 03:39:43;;;;;;;7.80;6.00;;;1.40;99.90;;;;;;4995741;28;20253;-76
2021/12/08 03:42:10;;;;;;;9.53;7.30;;;1.50;99.90;;;;;;4995824;28;20174;-74
2021/12/08 03:44:37;;;;;;;10.23;7.80;;;1.60;99.90;;;;;;4996021;28;20721;-73
2021/12/08 03:47:13;;;;;;;7.90;7.17;;;1.60;99.90;;;;;;4996015;28;20187;-73
2021/12/08 03:49:39;;;;;;;7.33;6.73;;;1.70;99.90;;;;;;4996007;28;20249;-73
2021/12/08 03:52:05;;;;;;;8.73;7.80;;;1.70;99.90;;;;;;4995873;28;20262;-74
2021/12/08 03:54:31;;;;;;;10.63;7.20;;;1.60;99.90;;;;;;4996112;28;20185;-72
2021/12/08 03:56:57;;;;;;;8.27;6.67;;;1.60;99.90;;;;;;4996233;28;20194;-72
2021/12/08 03:59:23;;;;;;;8.53;7.47;;;1.70;99.90;;;;;;4995832;28;20215;-72
2021/12/08 04:01:48;;;;;;;10.10;7.87;;;1.60;99.90;;;;;;4995799;28;20200;-72
2021/12/08 04:04:14;;;;;;;8.50;7.67;;;1.60;99.90;;;;;;4995641;28;20204;-72
2021/12/08 04:06:46;;;;;;;8.00;7.00;;;1.60;99.90;;;;;;4987031;28;20192;-71
2021/12/08 04:12:14;;;;;;;7.30;6.60;;;1.70;99.90;;;;;;4962694;28;20586;-72
2021/12/08 04:14:53;;;;;;;8.10;7.20;;;1.70;99.90;;;;;;4995565;28;20204;-72
2021/12/08 04:17:29;;;;;;;8.10;7.30;;;1.80;99.90;;;;;;4995495;28;20175;-72
2021/12/08 04:19:57;;;;;;;7.77;7.07;;;1.70;99.90;;;;;;4995689;28;20187;-72
2021/12/08 04:22:29;;;;;;;8.70;7.13;;;1.70;99.90;;;;;;4995529;28;20176;-71
2021/12/08 04:24:56;;;;;;;7.70;6.90;;;1.80;99.90;;;;;;4995341;28;20207;-71
2021/12/08 04:27:30;;;;;;;9.33;7.53;;;1.80;99.90;;;;;;4999560;28;20249;-72
2021/12/08 04:29:57;;;;;;;8.17;7.37;;;1.80;99.90;;;;;;5014715;28;20184;-71
2021/12/08 04:32:25;;;;;;;7.27;6.57;;;1.80;99.90;;;;;;5014644;28;20227;-71
2021/12/08 04:34:54;;;;;;;8.33;7.17;;;1.90;99.90;;;;;;5004239;28;20202;-71
2021/12/08 04:37:27;;;;;;;8.20;7.40;;;1.90;99.90;;;;;;4999016;28;20643;-71
2021/12/08 04:45:34;;;;;;;10.03;7.70;;;1.90;99.90;;;;;;4995032;28;20255;-74
2021/12/08 04:48:14;;;;;;;9.63;7.93;;;1.80;99.90;;;;;;4995037;28;20716;-74
2021/12/08 05:04:33;;;;;;;8.17;7.47;;;1.80;99.90;;;;;;5006184;28;20226;-72
2021/12/08 05:07:30;;;;;;;8.60;7.70;;;1.80;99.90;;;;;;4997981;28;20212;-75
2021/12/08 05:09:58;;;;;;;9.93;8.07;;;1.80;99.90;;;;;;4990896;28;20183;-74
2021/12/08 05:12:28;;;;;;;11.73;7.60;;;1.90;99.90;;;;;;5013315;28;20225;-74
2021/12/08 05:14:57;;;;;;;9.17;8.27;;;1.90;99.90;;;;;;4992726;28;20225;-74
2021/12/08 05:17:31;;;;;;;10.10;8.97;;;1.90;99.90;;;;;;5013635;28;20189;-73
2021/12/08 05:19:58;;;;;;;8.93;8.13;;;1.90;99.90;;;;;;5014051;28;20175;-74
2021/12/08 05:22:31;;;;;;;10.23;8.93;;;1.90;99.90;;;;;;5013960;28;20183;-73
2021/12/08 05:25:00;;;;;;;9.00;8.20;;;1.90;99.90;;;;;;4995090;28;20203;-73
2021/12/08 05:27:31;;;;;;;10.23;8.90;;;1.90;99.90;;;;;;4994498;28;20529;-73
2021/12/08 05:30:26;;;;;;;10.40;9.40;;;2.00;99.90;;;;;;4993989;28;20180;-73
2021/12/08 05:32:52;;;;;;;10.60;9.00;;;2.00;99.90;;;;;;4971087;28;20693;-73
2021/12/08 05:35:20;;;;;;;10.90;9.33;;;1.90;99.90;;;;;;4994148;28;20222;-73
2021/12/08 05:37:47;;;;;;;11.40;10.20;;;1.90;99.90;;;;;;4993951;28;20181;-73
2021/12/08 05:40:19;;;;;;;10.97;9.20;;;1.90;99.90;;;;;;4994053;28;20180;-74
2021/12/08 05:42:45;;;;;;;10.90;9.77;;;1.90;99.90;;;;;;4994049;28;20238;-73
2021/12/08 05:45:15;;;;;;;10.63;9.73;;;1.90;99.90;;;;;;4993809;28;20618;-73
2021/12/08 05:47:41;;;;;;;11.50;9.50;;;2.00;99.90;;;;;;5013431;28;20217;-73
2021/12/08 05:50:10;;;;;;;9.47;8.53;;;2.00;99.90;;;;;;4995466;28;20399;-75
2021/12/08 05:52:36;;;;;;;11.93;10.30;;;2.00;99.90;;;;;;4993020;28;20647;-75
2021/12/08 05:55:05;;;;;;;11.37;9.83;;;2.00;99.90;;;;;;4991078;28;20281;-75
2021/12/08 05:57:35;;;;;;;11.37;9.73;;;2.00;99.90;;;;;;4995510;28;20218;-74
2021/12/08 06:00:13;;;;;;;13.50;10.00;;;2.00;99.90;;;;;;4996188;28;20195;-75
2021/12/08 06:02:40;;;;;;;13.03;10.83;;;2.00;99.90;;;;;;4997051;28;20183;-73
2021/12/08 06:05:08;;;;;;;10.33;9.33;;;2.00;99.90;;;;;;5000145;28;20264;-73
2021/12/08 06:07:34;;;;;;;14.30;10.93;;;2.00;99.90;;;;;;4994091;28;20224;-74
2021/12/08 06:10:05;;;;;;;13.07;10.47;;;1.90;99.90;;;;;;4993806;28;20187;-73
2021/12/08 06:12:30;;;;;;;13.93;11.30;;;2.00;99.90;;;;;;4993695;28;20200;-73
2021/12/08 06:14:56;;;;;;;15.67;11.87;;;2.10;99.90;;;;;;4993365;28;20334;-72
2021/12/08 06:17:26;;;;;;;13.07;10.77;;;2.00;99.90;;;;;;4992155;28;20361;-76
2021/12/08 06:19:53;;;;;;;11.63;10.50;;;2.10;99.90;;;;;;4984086;28;20214;-74
2021/12/08 06:22:20;;;;;;;13.47;11.07;;;2.10;99.90;;;;;;4990819;28;20252;-74
2021/12/08 06:24:46;;;;;;;15.00;10.57;;;2.10;99.90;;;;;;4994639;28;20203;-73
2021/12/08 06:27:13;;;;;;;13.47;11.07;;;2.10;99.90;;;;;;4994370;28;20654;-73
2021/12/08 06:29:39;;;;;;;13.27;11.10;;;2.10;99.90;;;;;;4996648;28;20216;-74
2021/12/08 06:32:08;;;;;;;13.53;10.77;;;2.10;99.90;;;;;;4991950;28;20196;-74
2021/12/08 06:34:35;;;;;;;13.80;11.30;;;2.10;99.90;;;;;;4995216;28;20574;-73
2021/12/08 06:37:06;;;;;;;13.40;11.03;;;2.10;99.90;;;;;;5012023;28;20180;-74
2021/12/08 06:39:48;;;;;;;12.90;10.67;;;2.20;99.90;;;;;;4994156;28;20180;-73
2021/12/08 06:42:19;;;;;;;12.43;10.83;;;2.20;99.90;;;;;;5005346;28;20182;-74
2021/12/08 06:44:47;;;;;;;12.37;10.93;;;2.20;99.90;;;;;;4992010;28;20588;-74
2021/12/08 06:47:27;;;;;;;14.53;11.20;;;2.10;99.90;;;;;;4992512;28;20219;-73
2021/12/08 06:49:55;;;;;;;13.13;10.97;;;2.20;99.90;;;;;;4991654;28;20180;-73
2021/12/08 06:52:28;;;;;;;14.90;11.27;;;2.20;99.90;;;;;;4985111;28;20212;-74
2021/12/08 06:55:05;;;;;;;12.50;11.20;;;2.20;99.90;;;;;;4991406;28;20204;-74
2021/12/08 06:57:38;;;;;;;16.03;11.97;;;2.20;99.90;;;;;;4990934;28;20176;-74
2021/12/08 07:00:21;;;;;;;15.73;12.30;;;2.20;99.90;;;;;;4992232;28;20187;-74
2021/12/08 07:02:58;;;;;;;15.50;12.17;;;2.10;99.90;;;;;;4991827;28;20185;-73
2021/12/08 07:05:30;;;;;;;19.30;14.70;;;2.00;99.90;;;;;;4992211;28;20236;-73
2021/12/08 07:08:04;;;;;;;14.97;12.53;;;1.90;99.90;;;;;;4992305;28;20197;-72
2021/12/08 07:10:35;;;;;;;17.77;14.20;;;2.00;99.90;;;;;;4992154;28;20205;-72
2021/12/08 07:13:11;;;;;;;19.10;13.33;;;2.00;99.90;;;;;;4991874;28;20214;-73
2021/12/08 07:15:50;;;;;;;23.00;13.00;;;2.00;99.90;;;;;;4994739;28;20652;-73
2021/12/08 07:18:19;;;;;;;18.57;13.77;;;2.10;99.90;;;;;;4995115;28;20174;-73
2021/12/08 07:20:51;;;;;;;17.13;12.67;;;2.10;99.90;;;;;;4993742;28;20179;-74
2021/12/08 07:23:27;;;;;;;19.17;13.90;;;2.20;99.90;;;;;;5015182;28;20681;-72
2021/12/08 07:25:56;;;;;;;17.50;13.60;;;2.10;99.90;;;;;;4997839;28;20191;-73
2021/12/08 07:28:25;;;;;;;17.80;13.33;;;2.00;99.90;;;;;;5015161;28;20229;-73
2021/12/08 07:30:55;;;;;;;19.77;13.37;;;2.00;99.90;;;;;;4982596;28;20669;-73
2021/12/08 07:33:22;;;;;;;16.23;12.10;;;2.00;99.90;;;;;;4995345;28;20588;-73
2021/12/08 07:35:52;;;;;;;15.20;11.90;;;2.00;99.90;;;;;;4995426;28;20180;-72
2021/12/08 07:38:23;;;;;;;16.67;13.17;;;2.10;99.90;;;;;;4984180;28;20183;-72
2021/12/08 07:40:54;;;;;;;16.20;12.90;;;2.00;99.90;;;;;;5015013;28;20184;-73
2021/12/08 07:43:24;;;;;;;15.03;12.57;;;2.10;99.90;;;;;;5012810;28;20194;-73
2021/12/08 07:46:03;;;;;;;18.20;13.70;;;2.10;99.90;;;;;;4994083;28;20183;-73
2021/12/08 07:48:34;;;;;;;20.87;13.90;;;2.10;99.90;;;;;;4977161;28;20191;-74
2021/12/08 07:51:28;;;;;;;20.07;14.13;;;2.10;99.90;;;;;;4993387;28;20639;-73
2021/12/08 07:53:55;;;;;;;24.30;14.73;;;2.10;99.90;;;;;;4986013;28;20640;-74
2021/12/08 07:56:23;;;;;;;23.63;16.50;;;2.10;99.90;;;;;;4993855;28;20213;-72
2021/12/08 07:58:56;;;;;;;18.63;14.40;;;2.00;99.90;;;;;;4993732;28;20192;-73
2021/12/08 08:01:31;;;;;;;26.70;15.33;;;2.00;99.90;;;;;;4993844;28;20192;-73
2021/12/08 08:04:00;;;;;;;30.43;16.40;;;2.00;99.90;;;;;;4992934;28;20571;-73
2021/12/08 08:06:33;;;;;;;23.93;16.50;;;1.90;99.90;;;;;;4993544;28;20254;-73
2021/12/08 08:08:59;;;;;;;23.77;15.33;;;1.90;99.90;;;;;;4993386;28;20715;-73
2021/12/08 08:11:36;;;;;;;18.43;14.33;;;2.00;99.90;;;;;;4976885;28;20179;-73
2021/12/08 08:14:03;;;;;;;20.40;14.33;;;2.00;99.90;;;;;;4976889;28;20798;-73
2021/12/08 08:16:33;;;;;;;20.07;13.43;;;2.20;99.90;;;;;;4993677;28;20714;-73
2021/12/08 08:19:06;;;;;;;19.70;14.60;;;2.10;99.90;;;;;;5000445;28;20670;-74
2021/12/08 08:21:36;;;;;;;20.90;14.23;;;2.10;99.90;;;;;;4994310;28;20180;-73
2021/12/08 08:24:03;;;;;;;16.80;13.43;;;2.10;99.90;;;;;;4994377;28;20212;-73
2021/12/08 08:26:30;;;;;;;19.47;13.57;;;2.20;99.90;;;;;;4994487;28;20215;-72
2021/12/08 08:28:57;;;;;;;15.90;13.40;;;2.20;99.90;;;;;;4994509;28;20223;-73
2021/12/08 08:31:28;;;;;;;21.40;14.40;;;2.20;99.90;;;;;;4994360;28;20211;-73
2021/12/08 08:33:55;;;;;;;17.20;13.27;;;2.30;99.90;;;;;;4994226;28;20210;-73
2021/12/08 08:36:39;;;;;;;21.03;13.77;;;2.30;99.90;;;;;;4986730;28;20181;-73
2021/12/08 08:39:17;;;;;;;18.13;14.67;;;2.40;99.90;;;;;;4996245;28;20179;-72
2021/12/08 08:41:59;;;;;;;19.70;13.50;;;2.40;99.90;;;;;;4988528;28;20272;-70
2021/12/08 08:44:40;;;;;;;23.20;15.87;;;2.40;99.90;;;;;;4987311;28;20569;-73
2021/12/08 08:47:12;;;;;;;145.03;75.87;;;2.40;99.90;;;;;;4985103;28;20558;-73
2021/12/08 08:49:39;;;;;;;19.80;14.70;;;2.30;99.90;;;;;;4995998;28;20183;-72
2021/12/08 08:52:05;;;;;;;24.03;15.60;;;2.30;99.90;;;;;;4982301;28;20216;-73
2021/12/08 08:54:35;;;;;;;23.43;16.23;;;2.10;99.90;;;;;;4989832;28;20289;-72
2021/12/08 08:57:08;;;;;;;20.37;16.27;;;2.10;99.90;;;;;;4988538;28;20642;-73
2021/12/08 08:59:42;;;;;;;21.60;16.00;;;2.20;99.90;;;;;;4983891;28;20185;-72
2021/12/08 09:02:09;;;;;;;18.47;14.67;;;2.20;99.90;;;;;;4977546;28;20189;-72
2021/12/08 09:04:45;;;;;;;22.73;15.33;;;2.10;99.90;;;;;;4989617;28;20562;-72
2021/12/08 09:07:23;;;;;;;21.03;14.93;;;2.20;99.90;;;;;;4992515;28;20175;-72
2021/12/08 09:09:51;;;;;;;19.63;14.43;;;2.20;99.90;;;;;;4967587;28;20196;-72
2021/12/08 09:12:22;;;;;;;18.37;15.00;;;2.30;99.90;;;;;;4980510;28;20187;-73
2021/12/08 09:14:56;;;;;;;19.23;14.33;;;2.20;99.90;;;;;;4993719;28;20205;-72
2021/12/08 09:17:23;;;;;;;20.50;14.80;;;2.20;99.90;;;;;;4994186;28;20176;-73
2021/12/08 09:20:00;;;;;;;22.77;15.07;;;2.20;99.90;;;;;;4994118;28;20184;-72
2021/12/08 09:22:31;;;;;;;22.67;14.97;;;2.30;99.90;;;;;;4999844;28;20179;-73
2021/12/08 09:25:06;;;;;;;20.50;14.63;;;2.30;99.90;;;;;;4985044;28;20262;-73
2021/12/08 09:27:41;;;;;;;20.03;14.83;;;2.40;99.90;;;;;;4996177;28;20592;-73
2021/12/08 09:30:25;;;;;;;23.13;15.50;;;2.40;99.90;;;;;;4994044;28;20191;-73
2021/12/08 09:32:58;;;;;;;20.70;14.87;;;2.40;99.90;;;;;;4993982;28;20205;-72
2021/12/08 09:35:30;;;;;;;21.73;15.80;;;2.40;99.90;;;;;;4993702;28;20199;-72
2021/12/08 09:38:07;;;;;;;23.03;16.60;;;2.40;99.90;;;;;;4993841;28;20235;-74
2021/12/08 09:40:58;;;;;;;22.17;16.23;;;2.40;99.90;;;;;;4992903;28;20194;-74
2021/12/08 09:43:39;;;;;;;25.27;16.97;;;2.40;99.90;;;;;;4993951;28;20191;-72
2021/12/08 09:46:17;;;;;;;20.23;15.60;;;2.40;99.90;;;;;;4987964;28;20266;-73
2021/12/08 09:48:44;;;;;;;24.13;15.47;;;2.40;99.90;;;;;;4984476;28;20176;-73
2021/12/08 09:51:12;;;;;;;22.87;16.27;;;2.40;99.90;;;;;;4997890;28;20210;-73
2021/12/08 09:53:39;;;;;;;18.30;15.73;;;2.40;99.90;;;;;;4975648;28;20294;-72
2021/12/08 09:56:05;;;;;;;26.20;17.43;;;2.30;99.90;;;;;;4976197;28;20538;-75
2021/12/08 09:58:31;;;;;;;24.33;17.50;;;2.30;99.90;;;;;;4991235;28;20176;-74
2021/12/08 10:00:59;;;;;;;21.47;15.87;;;2.40;99.90;;;;;;4994179;28;20690;-75
2021/12/08 10:03:25;;;;;;;25.83;16.60;;;2.30;99.90;;;;;;4975722;28;20271;-72
2021/12/08 10:05:52;;;;;;;20.63;16.50;;;2.30;99.90;;;;;;4992405;28;20258;-73
2021/12/08 10:08:18;;;;;;;21.00;16.67;;;2.30;99.90;;;;;;4992979;28;20244;-71
2021/12/08 10:10:45;;;;;;;24.20;15.87;;;2.20;99.90;;;;;;5008577;28;20187;-72
2021/12/08 10:13:12;;;;;;;22.50;16.37;;;2.20;99.90;;;;;;5013398;28;20201;-73
2021/12/08 10:15:38;;;;;;;22.90;16.10;;;2.30;99.90;;;;;;5003558;28;20191;-74
2021/12/08 10:18:06;;;;;;;22.27;17.00;;;2.30;99.90;;;;;;4993786;28;20248;-72
2021/12/08 10:20:34;;;;;;;21.57;16.90;;;2.40;99.90;;;;;;4989831;28;20560;-74
2021/12/08 10:23:14;;;;;;;29.53;19.20;;;2.50;99.90;;;;;;4997400;28;20180;-74
2021/12/08 10:26:03;;;;;;;23.10;16.53;;;2.30;99.90;;;;;;4990108;28;20194;-73
2021/12/08 10:28:31;;;;;;;25.67;16.87;;;2.30;99.90;;;;;;4981253;28;20665;-71
2021/12/08 10:31:16;;;;;;;24.30;17.50;;;2.40;99.90;;;;;;4994126;28;20183;-73
2021/12/08 10:34:01;;;;;;;23.83;19.00;;;2.40;99.90;;;;;;4991369;28;20212;-73
2021/12/08 10:39:16;;;;;;;13.93;11.27;;;2.50;99.90;;;;;;4986943;28;20226;-72
2021/12/08 10:42:01;;;;;;;10.40;9.50;;;2.60;99.90;;;;;;4990501;28;20170;-72
2021/12/08 10:44:32;;;;;;;12.40;10.10;;;2.70;99.90;;;;;;4993524;28;20714;-72
2021/12/08 10:46:59;;;;;;;13.57;10.23;;;2.70;99.90;;;;;;4974928;28;20682;-73
2021/12/08 10:54:40;;;;;;;19.07;13.30;;;2.80;99.90;;;;;;4996272;28;20230;-72
2021/12/08 10:57:27;;;;;;;14.23;11.73;;;2.90;99.90;;;;;;4997254;28;20706;-71
2021/12/08 10:59:59;;;;;;;10.17;9.23;;;2.90;99.90;;;;;;4994817;28;20188;-72
2021/12/08 11:02:50;;;;;;;9.80;8.80;;;3.00;99.90;;;;;;4996695;28;20648;-70
2021/12/08 11:05:25;;;;;;;10.13;9.03;;;2.90;99.90;;;;;;5000491;28;20199;-71
2021/12/08 11:07:59;;;;;;;11.17;9.90;;;2.90;99.90;;;;;;4994370;28;20176;-71
2021/12/08 11:10:25;;;;;;;13.93;11.67;;;3.00;99.90;;;;;;4996213;28;20180;-71
2021/12/08 11:12:53;;;;;;;13.53;11.00;;;3.00;99.90;;;;;;4985667;28;20268;-72
2021/12/08 11:15:22;;;;;;;16.43;12.43;;;3.10;99.90;;;;;;5006530;28;20702;-72
2021/12/08 11:17:48;;;;;;;16.23;12.10;;;3.10;99.90;;;;;;4992748;28;20238;-74
2021/12/08 11:20:31;;;;;;;18.23;13.40;;;3.10;99.90;;;;;;4992213;28;21074;-73
2021/12/08 11:23:03;;;;;;;11.27;10.13;;;3.10;99.90;;;;;;4994805;28;20250;-72
2021/12/08 11:25:35;;;;;;;11.97;10.67;;;3.10;99.90;;;;;;4994785;28;20203;-71
2021/12/08 11:28:30;;;;;;;11.03;9.53;;;3.20;99.90;;;;;;4994642;28;20173;-73
2021/12/08 11:31:09;;;;;;;9.07;8.17;;;3.20;99.90;;;;;;4994553;28;20311;-72
2021/12/08 11:33:38;;;;;;;9.73;8.83;;;3.10;99.90;;;;;;4992046;28;20621;-73
2021/12/08 11:36:20;;;;;;;10.00;8.17;;;3.10;99.90;;;;;;4994516;28;20678;-73
2021/12/08 11:38:48;;;;;;;8.27;7.57;;;3.20;99.90;;;;;;4992158;28;20527;-72
2021/12/08 11:41:26;;;;;;;7.90;7.10;;;3.20;99.90;;;;;;4994616;28;20203;-72
2021/12/08 11:43:54;;;;;;;8.00;7.20;;;3.10;99.90;;;;;;4994477;28;20225;-71
2021/12/08 11:46:21;;;;;;;11.07;7.97;;;3.10;99.90;;;;;;4976861;28;20180;-73
2021/12/08 11:51:31;;;;;;;7.40;6.80;;;3.10;99.90;;;;;;4993997;28;20181;-72
2021/12/08 11:53:57;;;;;;;7.10;6.50;;;3.20;99.90;;;;;;4978231;28;20208;-72
2021/12/08 11:56:38;;;;;;;9.23;8.33;;;3.10;99.90;;;;;;4994197;28;20179;-74
2021/12/08 11:59:07;;;;;;;9.23;8.30;;;3.10;99.90;;;;;;4991382;28;20157;-73
2021/12/08 12:01:33;;;;;;;7.93;7.23;;;3.10;99.90;;;;;;4994036;28;20626;-74
2021/12/08 12:03:59;;;;;;;7.53;6.93;;;3.10;99.90;;;;;;4995896;28;20203;-74
2021/12/08 12:06:28;;;;;;;7.07;6.47;;;3.20;99.90;;;;;;4994711;28;20180;-72
2021/12/08 12:08:59;;;;;;;8.57;7.77;;;3.20;99.90;;;;;;4994084;28;20230;-73
2021/12/08 12:11:26;;;;;;;8.00;7.27;;;3.20;99.90;;;;;;4994453;28;20226;-72
2021/12/08 12:13:54;;;;;;;8.33;6.67;;;3.20;99.90;;;;;;4995502;28;20230;-73
2021/12/08 12:16:21;;;;;;;5.93;5.43;;;3.20;99.90;;;;;;4995664;28;20722;-72
2021/12/08 12:18:47;;;;;;;7.43;6.73;;;3.20;99.90;;;;;;4991520;28;20182;-72
2021/12/08 12:21:22;;;;;;;8.27;7.57;;;3.10;99.90;;;;;;5014700;28;20179;-73
2021/12/08 12:24:36;;;;;;;8.07;7.37;;;3.10;99.90;;;;;;5014488;28;20202;-73
2021/12/08 12:27:25;;;;;;;8.90;8.10;;;3.10;99.90;;;;;;4998015;28;20187;-73
2021/12/08 12:30:28;;;;;;;7.67;6.97;;;3.10;99.90;;;;;;5013392;28;20230;-73
2021/12/08 12:32:54;;;;;;;7.53;6.87;;;3.20;99.90;;;;;;4995149;28;20214;-72
2021/12/08 12:35:24;;;;;;;8.83;7.97;;;3.10;99.90;;;;;;4987491;28;20198;-71
2021/12/08 12:38:06;;;;;;;8.07;7.37;;;3.20;99.90;;;;;;5014941;28;20179;-71
2021/12/08 12:40:47;;;;;;;8.40;7.60;;;3.10;99.90;;;;;;5014570;28;20232;-71
2021/12/08 12:43:24;;;;;;;8.13;7.33;;;3.10;99.90;;;;;;4997746;28;20582;-73
2021/12/08 12:46:04;;;;;;;8.63;7.73;;;3.10;99.90;;;;;;4995446;28;20655;-73
2021/12/08 12:48:31;;;;;;;8.73;8.00;;;3.10;99.90;;;;;;4979894;28;20909;-72
2021/12/08 12:51:03;;;;;;;8.30;7.50;;;3.10;99.90;;;;;;4991030;28;20203;-74
2021/12/08 12:53:38;;;;;;;8.87;8.07;;;3.10;99.90;;;;;;4994460;28;20206;-73
2021/12/08 12:56:06;;;;;;;8.40;7.60;;;3.10;99.90;;;;;;4995175;28;20175;-72
2021/12/08 12:58:41;;;;;;;8.63;7.83;;;3.10;99.90;;;;;;4993503;28;20525;-72
2021/12/08 13:01:18;;;;;;;8.43;7.73;;;3.10;99.90;;;;;;4994190;28;20180;-72
2021/12/08 13:04:14;;;;;;;8.73;7.83;;;3.10;99.90;;;;;;4975457;28;20223;-72
2021/12/08 13:06:52;;;;;;;9.27;8.47;;;3.10;99.90;;;;;;4994090;28;20193;-74
2021/12/08 13:09:39;;;;;;;7.70;7.03;;;3.10;99.90;;;;;;4992774;28;20673;-74
2021/12/08 13:12:21;;;;;;;8.33;7.53;;;3.10;99.90;;;;;;4989532;28;20233;-73
2021/12/08 13:15:11;;;;;;;7.87;7.17;;;3.10;99.90;;;;;;4993407;28;20250;-73
2021/12/08 13:17:37;;;;;;;7.60;6.90;;;3.10;99.90;;;;;;4991407;28;20173;-73
2021/12/08 13:20:12;;;;;;;7.80;7.00;;;3.20;99.90;;;;;;4992651;28;20218;-72
2021/12/08 13:22:54;;;;;;;9.30;8.37;;;3.20;99.90;;;;;;4995733;28;20170;-73
2021/12/08 13:25:24;;;;;;;8.03;7.33;;;3.20;99.90;;;;;;4987165;28;20572;-75
2021/12/08 13:27:56;;;;;;;9.70;8.70;;;3.20;99.90;;;;;;4971994;28;20621;-75
2021/12/08 13:30:22;;;;;;;12.77;10.57;;;3.20;99.90;;;;;;4978156;28;20185;-76
2021/12/08 13:32:56;;;;;;;11.97;10.67;;;3.20;99.90;;;;;;4992831;28;20215;-75
2021/12/08 13:35:53;;;;;;;14.67;13.33;;;3.20;99.90;;;;;;4979831;28;20194;-77
2021/12/08 13:38:19;;;;;;;12.93;11.53;;;3.10;99.90;;;;;;4973514;28;20210;-75
2021/12/08 13:40:49;;;;;;;19.77;12.90;;;3.30;99.90;;;;;;4998653;28;20176;-76
2021/12/08 13:43:38;;;;;;;19.43;14.73;;;3.30;99.90;;;;;;4993041;28;20173;-75
2021/12/08 13:46:05;;;;;;;13.00;11.60;;;3.30;99.90;;;;;;4972324;28;20176;-76
2021/12/08 13:48:32;;;;;;;12.10;9.40;;;3.40;99.90;;;;;;4982052;28;20173;-75
2021/12/08 13:51:21;;;;;;;9.27;8.47;;;3.30;99.90;;;;;;4996240;28;20184;-75
2021/12/08 13:54:24;;;;;;;11.00;8.70;;;3.30;99.90;;;;;;4989043;28;20233;-75
2021/12/08 13:56:49;;;;;;;9.07;8.10;;;3.30;99.90;;;;;;4992586;28;20183;-75
2021/12/08 13:59:53;;;;;;;7.97;7.23;;;3.30;99.90;;;;;;4992200;28;20173;-74
2021/12/08 14:02:41;;;;;;;9.20;7.20;;;3.30;99.90;;;;;;4992316;28;20185;-73
2021/12/08 14:05:11;;;;;;;8.87;7.33;;;3.30;99.90;;;;;;4989568;28;20214;-74